sensor_id;sensor_type;location;lat;lon;timestamp;pressure;altitude;pressure_sealevel;temperature;humidity
41254;BME280;26987;59.928;30.306;2023-04-04T00:00:37;102165.00;;;-2.23;99.27
41254;BME280;26987;59.928;30.306;2023-04-04T00:03:05;102169.34;;;-2.22;100.00
41254;BME280;26987;59.928;30.306;2023-04-04T00:05:33;102150.25;;;-2.25;100.00
41254;BME280;26987;59.928;30.306;2023-04-04T00:08:10;102165.50;;;-2.16;100.00
41254;BME280;26987;59.928;30.306;2023-04-04T00:10:38;102164.66;;;-2.17;100.00
41254;BME280;26987;59.928;30.306;2023-04-04T00:13:06;102155.50;;;-2.25;100.00
41254;BME280;26987;59.928;30.306;2023-04-04T00:15:34;102153.47;;;-2.20;100.00
41254;BME280;26987;59.928;30.306;2023-04-04T00:18:02;102160.44;;;-2.19;100.00
41254;BME280;26987;59.928;30.306;2023-04-04T00:20:30;102152.88;;;-2.25;100.00
41254;BME280;26987;59.928;30.306;2023-04-04T00:22:58;102149.50;;;-2.28;100.00
41254;BME280;26987;59.928;30.306;2023-04-04T00:25:27;102155.44;;;-2.24;100.00
41254;BME280;26987;59.928;30.306;2023-04-04T00:27:55;102142.38;;;-2.25;100.00
41254;BME280;26987;59.928;30.306;2023-04-04T00:30:25;102150.09;;;-2.22;100.00
41254;BME280;26987;59.928;30.306;2023-04-04T00:32:53;102151.03;;;-2.23;100.00
41254;BME280;26987;59.928;30.306;2023-04-04T00:35:22;102146.59;;;-2.23;100.00
41254;BME280;26987;59.928;30.306;2023-04-04T00:37:50;102140.59;;;-2.25;100.00
41254;BME280;26987;59.928;30.306;2023-04-04T00:40:18;102138.16;;;-2.28;100.00
41254;BME280;26987;59.928;30.306;2023-04-04T00:42:47;102147.09;;;-2.16;100.00
41254;BME280;26987;59.928;30.306;2023-04-04T00:45:15;102140.09;;;-2.16;100.00
41254;BME280;26987;59.928;30.306;2023-04-04T00:47:43;102141.94;;;-2.18;100.00
41254;BME280;26987;59.928;30.306;2023-04-04T00:50:12;102143.63;;;-2.17;100.00
41254;BME280;26987;59.928;30.306;2023-04-04T00:52:40;102141.75;;;-2.14;100.00
41254;BME280;26987;59.928;30.306;2023-04-04T00:55:08;102143.78;;;-2.20;100.00
41254;BME280;26987;59.928;30.306;2023-04-04T00:57:36;102136.78;;;-2.19;100.00
41254;BME280;26987;59.928;30.306;2023-04-04T01:00:07;102118.47;;;-2.21;100.00
41254;BME280;26987;59.928;30.306;2023-04-04T01:02:35;102139.31;;;-2.18;100.00
41254;BME280;26987;59.928;30.306;2023-04-04T01:05:03;102137.88;;;-2.23;100.00
41254;BME280;26987;59.928;30.306;2023-04-04T01:07:33;102122.25;;;-2.41;100.00
41254;BME280;26987;59.928;30.306;2023-04-04T01:10:02;102133.91;;;-2.31;100.00
41254;BME280;26987;59.928;30.306;2023-04-04T01:12:30;102134.75;;;-2.30;100.00
41254;BME280;26987;59.928;30.306;2023-04-04T01:14:58;102137.63;;;-2.35;100.00
41254;BME280;26987;59.928;30.306;2023-04-04T01:17:28;102133.25;;;-2.34;100.00
41254;BME280;26987;59.928;30.306;2023-04-04T01:20:07;102129.66;;;-2.33;100.00
41254;BME280;26987;59.928;30.306;2023-04-04T01:22:49;102132.66;;;-2.39;100.00
41254;BME280;26987;59.928;30.306;2023-04-04T01:25:24;102129.00;;;-2.37;100.00
41254;BME280;26987;59.928;30.306;2023-04-04T01:27:56;102124.31;;;-2.32;100.00
41254;BME280;26987;59.928;30.306;2023-04-04T01:30:26;102110.88;;;-2.42;100.00
41254;BME280;26987;59.928;30.306;2023-04-04T01:32:59;102094.28;;;-2.58;100.00
41254;BME280;26987;59.928;30.306;2023-04-04T01:35:34;102121.31;;;-2.40;100.00
41254;BME280;26987;59.928;30.306;2023-04-04T01:38:13;102122.81;;;-2.36;100.00
41254;BME280;26987;59.928;30.306;2023-04-04T01:40:48;102090.53;;;-2.54;100.00
41254;BME280;26987;59.928;30.306;2023-04-04T01:43:17;102114.66;;;-2.31;100.00
41254;BME280;26987;59.928;30.306;2023-04-04T01:45:45;102116.34;;;-2.30;100.00
41254;BME280;26987;59.928;30.306;2023-04-04T01:48:14;102107.91;;;-2.35;100.00
41254;BME280;26987;59.928;30.306;2023-04-04T01:50:45;102127.03;;;-2.33;100.00
41254;BME280;26987;59.928;30.306;2023-04-04T01:53:13;102116.03;;;-2.40;100.00
41254;BME280;26987;59.928;30.306;2023-04-04T01:55:41;102113.84;;;-2.48;100.00
41254;BME280;26987;59.928;30.306;2023-04-04T01:58:11;102113.75;;;-2.46;100.00
41254;BME280;26987;59.928;30.306;2023-04-04T02:00:39;102110.44;;;-2.50;100.00
41254;BME280;26987;59.928;30.306;2023-04-04T02:03:07;102108.03;;;-2.53;100.00
41254;BME280;26987;59.928;30.306;2023-04-04T02:05:35;102105.19;;;-2.50;100.00
41254;BME280;26987;59.928;30.306;2023-04-04T02:08:03;102095.31;;;-2.61;100.00
41254;BME280;26987;59.928;30.306;2023-04-04T02:10:40;102099.19;;;-2.52;100.00
41254;BME280;26987;59.928;30.306;2023-04-04T02:13:07;102105.47;;;-2.55;100.00
41254;BME280;26987;59.928;30.306;2023-04-04T02:15:37;102115.22;;;-2.57;100.00
41254;BME280;26987;59.928;30.306;2023-04-04T02:18:05;102102.78;;;-2.53;100.00
41254;BME280;26987;59.928;30.306;2023-04-04T02:20:33;102110.44;;;-2.50;100.00
41254;BME280;26987;59.928;30.306;2023-04-04T02:23:00;102113.53;;;-2.58;100.00
41254;BME280;26987;59.928;30.306;2023-04-04T02:25:28;102105.47;;;-2.55;100.00
41254;BME280;26987;59.928;30.306;2023-04-04T02:27:56;102094.88;;;-2.53;100.00
41254;BME280;26987;59.928;30.306;2023-04-04T02:30:24;102101.47;;;-2.46;100.00
41254;BME280;26987;59.928;30.306;2023-04-04T02:32:56;102097.56;;;-2.38;100.00
41254;BME280;26987;59.928;30.306;2023-04-04T02:35:25;102099.44;;;-2.41;100.00
41254;BME280;26987;59.928;30.306;2023-04-04T02:37:53;102105.78;;;-2.45;100.00
41254;BME280;26987;59.928;30.306;2023-04-04T02:40:32;102106.66;;;-2.44;100.00
41254;BME280;26987;59.928;30.306;2023-04-04T02:43:01;102103.75;;;-2.39;100.00
41254;BME280;26987;59.928;30.306;2023-04-04T02:45:29;102094.00;;;-2.37;100.00
41254;BME280;26987;59.928;30.306;2023-04-04T02:48:07;102100.75;;;-2.33;100.00
41254;BME280;26987;59.928;30.306;2023-04-04T02:50:45;102104.06;;;-2.30;100.00
41254;BME280;26987;59.928;30.306;2023-04-04T02:53:14;102097.22;;;-2.32;100.00
41254;BME280;26987;59.928;30.306;2023-04-04T02:55:43;102091.78;;;-2.29;100.00
41254;BME280;26987;59.928;30.306;2023-04-04T02:58:11;102103.03;;;-2.27;100.00
41254;BME280;26987;59.928;30.306;2023-04-04T03:00:39;102094.97;;;-2.24;100.00
41254;BME280;26987;59.928;30.306;2023-04-04T03:03:08;102061.13;;;-2.45;100.00
41254;BME280;26987;59.928;30.306;2023-04-04T03:05:41;102097.44;;;-2.21;100.00
41254;BME280;26987;59.928;30.306;2023-04-04T03:08:09;102096.50;;;-2.20;100.00
41254;BME280;26987;59.928;30.306;2023-04-04T03:10:37;102094.81;;;-2.21;100.00
41254;BME280;26987;59.928;30.306;2023-04-04T03:13:06;102096.13;;;-2.13;100.00
41254;BME280;26987;59.928;30.306;2023-04-04T03:15:35;102098.69;;;-2.12;100.00
41254;BME280;26987;59.928;30.306;2023-04-04T03:18:03;102081.09;;;-2.26;100.00
41254;BME280;26987;59.928;30.306;2023-04-04T03:20:34;102089.47;;;-2.19;100.00
41254;BME280;26987;59.928;30.306;2023-04-04T03:23:02;102076.41;;;-2.21;100.00
41254;BME280;26987;59.928;30.306;2023-04-04T03:25:30;102104.25;;;-2.02;100.00
41254;BME280;26987;59.928;30.306;2023-04-04T03:28:06;102098.81;;;-1.99;100.00
41254;BME280;26987;59.928;30.306;2023-04-04T03:30:35;102095.59;;;-2.04;100.00
41254;BME280;26987;59.928;30.306;2023-04-04T03:33:03;102096.56;;;-2.05;100.00
41254;BME280;26987;59.928;30.306;2023-04-04T03:35:36;102098.59;;;-1.96;100.00
41254;BME280;26987;59.928;30.306;2023-04-04T03:38:04;102097.03;;;-1.98;100.00
41254;BME280;26987;59.928;30.306;2023-04-04T03:40:33;102048.03;;;-2.30;100.00
41254;BME280;26987;59.928;30.306;2023-04-04T03:43:06;102090.34;;;-2.04;100.00
41254;BME280;26987;59.928;30.306;2023-04-04T03:45:34;102096.94;;;-1.97;100.00
41254;BME280;26987;59.928;30.306;2023-04-04T03:48:02;102096.38;;;-1.87;100.00
41254;BME280;26987;59.928;30.306;2023-04-04T03:50:31;102077.69;;;-1.97;100.00
41254;BME280;26987;59.928;30.306;2023-04-04T03:53:01;102095.34;;;-1.85;100.00
41254;BME280;26987;59.928;30.306;2023-04-04T03:55:29;102094.72;;;-1.88;100.00
41254;BME280;26987;59.928;30.306;2023-04-04T03:57:59;102090.00;;;-1.98;99.33
41254;BME280;26987;59.928;30.306;2023-04-04T04:00:27;102086.06;;;-1.91;99.72
41254;BME280;26987;59.928;30.306;2023-04-04T04:02:55;102076.16;;;-2.01;99.53
41254;BME280;26987;59.928;30.306;2023-04-04T04:05:24;102086.22;;;-1.94;99.70
41254;BME280;26987;59.928;30.306;2023-04-04T04:07:51;102090.28;;;-1.88;100.00
41254;BME280;26987;59.928;30.306;2023-04-04T04:10:21;102084.09;;;-1.87;99.19
41254;BME280;26987;59.928;30.306;2023-04-04T04:12:49;102075.06;;;-1.97;99.48
41254;BME280;26987;59.928;30.306;2023-04-04T04:15:17;102083.44;;;-1.91;99.55
41254;BME280;26987;59.928;30.306;2023-04-04T04:17:46;102085.09;;;-1.90;98.62
41254;BME280;26987;59.928;30.306;2023-04-04T04:20:15;102085.00;;;-1.88;99.21
41254;BME280;26987;59.928;30.306;2023-04-04T04:22:48;102079.28;;;-1.95;98.85
41254;BME280;26987;59.928;30.306;2023-04-04T04:25:16;102071.78;;;-1.86;98.96
41254;BME280;26987;59.928;30.306;2023-04-04T04:27:56;102073.41;;;-1.84;98.91
41254;BME280;26987;59.928;30.306;2023-04-04T04:30:25;102075.00;;;-1.81;99.18
41254;BME280;26987;59.928;30.306;2023-04-04T04:32:53;102075.44;;;-1.74;98.37
41254;BME280;26987;59.928;30.306;2023-04-04T04:35:27;102070.88;;;-1.71;97.97
41254;BME280;26987;59.928;30.306;2023-04-04T04:37:56;102079.13;;;-1.77;97.35
41254;BME280;26987;59.928;30.306;2023-04-04T04:40:23;102069.38;;;-1.75;97.41
41254;BME280;26987;59.928;30.306;2023-04-04T04:42:59;102067.28;;;-1.70;97.44
41254;BME280;26987;59.928;30.306;2023-04-04T04:45:27;102068.31;;;-1.72;97.32
41254;BME280;26987;59.928;30.306;2023-04-04T04:48:05;102053.50;;;-1.73;97.07
41254;BME280;26987;59.928;30.306;2023-04-04T04:50:39;102052.81;;;-1.62;96.98
41254;BME280;26987;59.928;30.306;2023-04-04T04:53:09;102062.50;;;-1.48;96.68
41254;BME280;26987;59.928;30.306;2023-04-04T04:55:37;102065.50;;;-1.40;96.66
41254;BME280;26987;59.928;30.306;2023-04-04T04:58:10;102065.41;;;-1.38;95.97
41254;BME280;26987;59.928;30.306;2023-04-04T05:00:41;102066.34;;;-1.40;95.62
41254;BME280;26987;59.928;30.306;2023-04-04T05:03:10;102068.03;;;-1.38;96.26
41254;BME280;26987;59.928;30.306;2023-04-04T05:05:45;102059.56;;;-1.29;96.88
41254;BME280;26987;59.928;30.306;2023-04-04T05:08:14;102054.13;;;-1.26;95.43
41254;BME280;26987;59.928;30.306;2023-04-04T05:11:04;102046.03;;;-1.23;94.55
41254;BME280;26987;59.928;30.306;2023-04-04T05:13:36;102060.81;;;-0.93;94.66
41254;BME280;26987;59.928;30.306;2023-04-04T05:16:05;102061.63;;;-0.78;92.49
41254;BME280;26987;59.928;30.306;2023-04-04T05:18:35;102059.97;;;-0.66;92.05
41254;BME280;26987;59.928;30.306;2023-04-04T05:21:08;102054.22;;;-0.58;91.60
41254;BME280;26987;59.928;30.306;2023-04-04T05:23:35;102063.88;;;-0.58;89.91
41254;BME280;26987;59.928;30.306;2023-04-04T05:26:04;102056.28;;;-0.63;89.94
41254;BME280;26987;59.928;30.306;2023-04-04T05:28:37;102061.47;;;-0.61;90.30
41254;BME280;26987;59.928;30.306;2023-04-04T05:31:06;102066.34;;;-0.55;89.96
41254;BME280;26987;59.928;30.306;2023-04-04T05:33:35;102018.19;;;-0.85;89.91
41254;BME280;26987;59.928;30.306;2023-04-04T05:36:14;102057.38;;;-0.53;88.73
41254;BME280;26987;59.928;30.306;2023-04-04T05:38:49;102054.63;;;-0.51;89.14
41254;BME280;26987;59.928;30.306;2023-04-04T05:41:19;102052.06;;;-0.66;88.27
41254;BME280;26987;59.928;30.306;2023-04-04T05:43:51;102055.06;;;-0.57;89.04
41254;BME280;26987;59.928;30.306;2023-04-04T05:46:22;102050.03;;;-0.47;88.52
41254;BME280;26987;59.928;30.306;2023-04-04T05:48:53;102055.75;;;-0.28;86.90
41254;BME280;26987;59.928;30.306;2023-04-04T05:51:22;102054.69;;;-0.25;87.08
41254;BME280;26987;59.928;30.306;2023-04-04T05:53:58;102051.44;;;-0.16;87.54
41254;BME280;26987;59.928;30.306;2023-04-04T05:56:31;102054.69;;;-0.38;86.76
41254;BME280;26987;59.928;30.306;2023-04-04T05:59:02;102049.34;;;-0.64;87.33
41254;BME280;26987;59.928;30.306;2023-04-04T06:01:33;102052.53;;;-0.86;88.59
41254;BME280;26987;59.928;30.306;2023-04-04T06:04:08;102037.00;;;-0.91;90.05
41254;BME280;26987;59.928;30.306;2023-04-04T06:06:36;102037.47;;;-0.84;90.18
41254;BME280;26987;59.928;30.306;2023-04-04T06:09:04;102042.00;;;-0.86;89.17
41254;BME280;26987;59.928;30.306;2023-04-04T06:11:32;102047.69;;;-0.80;90.14
41254;BME280;26987;59.928;30.306;2023-04-04T06:14:08;102048.41;;;-0.91;89.20
41254;BME280;26987;59.928;30.306;2023-04-04T06:16:36;102050.03;;;-1.03;90.09
41254;BME280;26987;59.928;30.306;2023-04-04T06:19:04;102058.41;;;-1.10;90.07
41254;BME280;26987;59.928;30.306;2023-04-04T06:21:32;101997.38;;;-1.45;90.16
41254;BME280;26987;59.928;30.306;2023-04-04T06:24:00;102022.22;;;-1.21;89.97
41254;BME280;26987;59.928;30.306;2023-04-04T06:26:27;102038.13;;;-1.23;89.87
41254;BME280;26987;59.928;30.306;2023-04-04T06:28:56;102040.47;;;-1.18;89.98
41254;BME280;26987;59.928;30.306;2023-04-04T06:31:29;102049.38;;;-1.06;90.43
41254;BME280;26987;59.928;30.306;2023-04-04T06:34:03;102047.13;;;-1.12;89.05
41254;BME280;26987;59.928;30.306;2023-04-04T06:36:36;102043.88;;;-1.31;90.33
41254;BME280;26987;59.928;30.306;2023-04-04T06:39:05;102038.88;;;-1.35;90.25
41254;BME280;26987;59.928;30.306;2023-04-04T06:41:33;102037.75;;;-1.17;90.36
41254;BME280;26987;59.928;30.306;2023-04-04T06:44:01;102032.72;;;-1.07;91.59
41254;BME280;26987;59.928;30.306;2023-04-04T06:46:30;102022.84;;;-1.03;89.41
41254;BME280;26987;59.928;30.306;2023-04-04T06:48:58;102026.38;;;-0.90;89.06
41254;BME280;26987;59.928;30.306;2023-04-04T06:51:26;102036.84;;;-0.75;89.05
41254;BME280;26987;59.928;30.306;2023-04-04T06:53:54;102038.91;;;-0.53;88.51
41254;BME280;26987;59.928;30.306;2023-04-04T06:56:22;102027.56;;;-0.53;86.88
41254;BME280;26987;59.928;30.306;2023-04-04T06:58:52;102028.47;;;-0.54;86.92
41254;BME280;26987;59.928;30.306;2023-04-04T07:01:21;102038.81;;;-0.51;86.27
41254;BME280;26987;59.928;30.306;2023-04-04T07:03:53;102025.53;;;-0.62;86.60
41254;BME280;26987;59.928;30.306;2023-04-04T07:06:21;102037.66;;;-0.60;86.75
41254;BME280;26987;59.928;30.306;2023-04-04T07:08:49;102021.31;;;-0.65;86.50
41254;BME280;26987;59.928;30.306;2023-04-04T07:11:17;102019.41;;;-0.63;86.51
41254;BME280;26987;59.928;30.306;2023-04-04T07:13:45;102034.38;;;-0.64;85.95
41254;BME280;26987;59.928;30.306;2023-04-04T07:16:13;102028.72;;;-0.57;85.60
41254;BME280;26987;59.928;30.306;2023-04-04T07:18:41;102027.00;;;-0.58;86.29
41254;BME280;26987;59.928;30.306;2023-04-04T07:21:10;102009.50;;;-0.72;85.47
41254;BME280;26987;59.928;30.306;2023-04-04T07:23:38;102039.78;;;-0.52;84.89
41254;BME280;26987;59.928;30.306;2023-04-04T07:26:06;102039.19;;;-0.43;85.00
41254;BME280;26987;59.928;30.306;2023-04-04T07:28:34;102022.19;;;-0.39;85.83
41254;BME280;26987;59.928;30.306;2023-04-04T07:31:02;102040.91;;;-0.29;84.44
41254;BME280;26987;59.928;30.306;2023-04-04T07:33:29;102037.00;;;-0.23;84.44
41254;BME280;26987;59.928;30.306;2023-04-04T07:35:59;102034.56;;;-0.13;84.74
41254;BME280;26987;59.928;30.306;2023-04-04T07:38:29;102045.56;;;0.07;83.06
41254;BME280;26987;59.928;30.306;2023-04-04T07:40:57;102037.44;;;-0.03;83.45
41254;BME280;26987;59.928;30.306;2023-04-04T07:43:24;102042.81;;;0.08;84.32
41254;BME280;26987;59.928;30.306;2023-04-04T07:45:53;102014.22;;;0.02;84.23
41254;BME280;26987;59.928;30.306;2023-04-04T07:48:21;102049.91;;;0.21;83.07
41254;BME280;26987;59.928;30.306;2023-04-04T07:50:48;102034.28;;;0.18;83.52
41254;BME280;26987;59.928;30.306;2023-04-04T07:53:16;102045.75;;;0.17;83.36
41254;BME280;26987;59.928;30.306;2023-04-04T07:55:45;102048.84;;;0.23;83.76
41254;BME280;26987;59.928;30.306;2023-04-04T07:58:13;102032.91;;;0.25;82.64
41254;BME280;26987;59.928;30.306;2023-04-04T08:00:41;102050.28;;;0.28;82.58
41254;BME280;26987;59.928;30.306;2023-04-04T08:03:09;102033.41;;;0.17;83.71
41254;BME280;26987;59.928;30.306;2023-04-04T08:05:37;102010.72;;;-0.11;83.68
41254;BME280;26987;59.928;30.306;2023-04-04T08:08:05;102048.41;;;0.04;84.22
41254;BME280;26987;59.928;30.306;2023-04-04T08:10:33;102055.34;;;0.05;84.56
41254;BME280;26987;59.928;30.306;2023-04-04T08:13:02;102055.16;;;0.08;84.33
41254;BME280;26987;59.928;30.306;2023-04-04T08:15:31;102041.56;;;0.01;84.70
41254;BME280;26987;59.928;30.306;2023-04-04T08:17:58;102046.63;;;0.04;85.22
41254;BME280;26987;59.928;30.306;2023-04-04T08:20:26;102034.81;;;-0.03;85.14
41254;BME280;26987;59.928;30.306;2023-04-04T08:22:54;102054.75;;;0.01;86.12
41254;BME280;26987;59.928;30.306;2023-04-04T08:25:22;102061.69;;;0.02;86.01
41254;BME280;26987;59.928;30.306;2023-04-04T08:27:50;102057.69;;;-0.04;86.33
41254;BME280;26987;59.928;30.306;2023-04-04T08:30:19;102053.47;;;0.07;86.76
41254;BME280;26987;59.928;30.306;2023-04-04T08:32:47;102057.47;;;0.12;85.67
41254;BME280;26987;59.928;30.306;2023-04-04T08:35:15;102057.81;;;0.21;85.62
41254;BME280;26987;59.928;30.306;2023-04-04T08:37:43;102054.09;;;0.36;85.03
41254;BME280;26987;59.928;30.306;2023-04-04T08:40:12;102011.16;;;0.21;84.43
41254;BME280;26987;59.928;30.306;2023-04-04T08:42:41;102056.81;;;0.61;83.65
41254;BME280;26987;59.928;30.306;2023-04-04T08:45:11;102031.19;;;0.37;83.20
41254;BME280;26987;59.928;30.306;2023-04-04T08:47:47;102063.25;;;0.57;83.06
41254;BME280;26987;59.928;30.306;2023-04-04T08:50:18;102072.31;;;0.66;81.91
41254;BME280;26987;59.928;30.306;2023-04-04T08:52:46;102056.28;;;0.69;82.23
41254;BME280;26987;59.928;30.306;2023-04-04T08:55:15;102055.16;;;0.84;82.44
41254;BME280;26987;59.928;30.306;2023-04-04T08:57:43;102068.63;;;1.06;81.49
41254;BME280;26987;59.928;30.306;2023-04-04T09:00:12;102059.66;;;1.08;80.77
41254;BME280;26987;59.928;30.306;2023-04-04T09:02:49;102061.16;;;1.24;80.96
41254;BME280;26987;59.928;30.306;2023-04-04T09:05:20;102006.69;;;0.85;79.47
41254;BME280;26987;59.928;30.306;2023-04-04T09:07:49;102062.97;;;0.99;80.68
41254;BME280;26987;59.928;30.306;2023-04-04T09:10:17;102060.44;;;0.97;80.09
41254;BME280;26987;59.928;30.306;2023-04-04T09:12:47;102059.91;;;0.92;80.68
41254;BME280;26987;59.928;30.306;2023-04-04T09:15:15;102062.44;;;0.94;79.84
41254;BME280;26987;59.928;30.306;2023-04-04T09:17:44;102059.78;;;0.94;80.21
41254;BME280;26987;59.928;30.306;2023-04-04T09:20:37;102062.78;;;1.13;80.89
41254;BME280;26987;59.928;30.306;2023-04-04T09:23:07;102056.31;;;0.93;81.30
41254;BME280;26987;59.928;30.306;2023-04-04T09:25:35;102046.53;;;0.82;81.47
41254;BME280;26987;59.928;30.306;2023-04-04T09:28:04;102051.16;;;0.92;81.22
41254;BME280;26987;59.928;30.306;2023-04-04T09:30:32;102036.00;;;0.94;81.32
41254;BME280;26987;59.928;30.306;2023-04-04T09:33:03;102062.19;;;1.10;80.61
41254;BME280;26987;59.928;30.306;2023-04-04T09:35:33;102054.50;;;0.94;79.07
41254;BME280;26987;59.928;30.306;2023-04-04T09:38:01;102049.44;;;0.91;78.96
41254;BME280;26987;59.928;30.306;2023-04-04T09:40:29;102055.63;;;1.03;79.75
41254;BME280;26987;59.928;30.306;2023-04-04T09:42:59;102051.94;;;1.05;79.87
41254;BME280;26987;59.928;30.306;2023-04-04T09:45:29;102058.38;;;1.01;80.46
41254;BME280;26987;59.928;30.306;2023-04-04T09:47:57;102061.28;;;0.98;79.66
41254;BME280;26987;59.928;30.306;2023-04-04T09:50:27;102056.81;;;0.98;79.83
41254;BME280;26987;59.928;30.306;2023-04-04T09:52:56;102027.44;;;1.03;80.56
41254;BME280;26987;59.928;30.306;2023-04-04T09:55:32;102041.31;;;1.43;79.16
41254;BME280;26987;59.928;30.306;2023-04-04T09:58:11;102048.25;;;1.80;78.93
41254;BME280;26987;59.928;30.306;2023-04-04T10:00:40;102043.97;;;1.90;76.07
41254;BME280;26987;59.928;30.306;2023-04-04T10:03:14;102053.56;;;1.80;75.34
41254;BME280;26987;59.928;30.306;2023-04-04T10:05:45;102053.59;;;1.55;75.00
41254;BME280;26987;59.928;30.306;2023-04-04T10:08:14;102055.25;;;1.45;75.59
41254;BME280;26987;59.928;30.306;2023-04-04T10:10:49;102063.28;;;1.43;76.71
41254;BME280;26987;59.928;30.306;2023-04-04T10:13:24;102046.19;;;1.36;76.54
41254;BME280;26987;59.928;30.306;2023-04-04T10:15:53;102055.66;;;1.51;76.09
41254;BME280;26987;59.928;30.306;2023-04-04T10:18:23;102054.56;;;1.54;76.61
41254;BME280;26987;59.928;30.306;2023-04-04T10:20:54;102070.31;;;1.56;75.73
41254;BME280;26987;59.928;30.306;2023-04-04T10:23:23;102027.31;;;1.29;75.97
41254;BME280;26987;59.928;30.306;2023-04-04T10:25:53;102069.41;;;1.44;75.87
41254;BME280;26987;59.928;30.306;2023-04-04T10:28:21;102063.94;;;1.58;76.09
41254;BME280;26987;59.928;30.306;2023-04-04T10:30:51;102059.16;;;1.63;76.89
41254;BME280;26987;59.928;30.306;2023-04-04T10:33:26;102068.84;;;1.87;76.71
41254;BME280;26987;59.928;30.306;2023-04-04T10:36:00;102065.63;;;2.07;76.34
41254;BME280;26987;59.928;30.306;2023-04-04T10:38:31;102079.25;;;2.13;76.56
41254;BME280;26987;59.928;30.306;2023-04-04T10:41:04;102074.88;;;1.89;77.23
41254;BME280;26987;59.928;30.306;2023-04-04T10:43:34;102069.53;;;1.67;78.56
41254;BME280;26987;59.928;30.306;2023-04-04T10:46:09;102064.47;;;1.63;78.93
41254;BME280;26987;59.928;30.306;2023-04-04T10:48:39;102054.19;;;1.47;79.83
41254;BME280;26987;59.928;30.306;2023-04-04T10:51:10;102063.94;;;1.58;81.02
41254;BME280;26987;59.928;30.306;2023-04-04T10:53:39;102078.66;;;1.62;79.76
41254;BME280;26987;59.928;30.306;2023-04-04T10:56:07;102079.66;;;1.73;80.00
41254;BME280;26987;59.928;30.306;2023-04-04T10:58:38;102080.09;;;1.67;79.48
41254;BME280;26987;59.928;30.306;2023-04-04T11:01:07;102059.06;;;1.41;79.07
41254;BME280;26987;59.928;30.306;2023-04-04T11:09:48;102082.69;;;1.06;80.97
41254;BME280;26987;59.928;30.306;2023-04-04T11:12:20;102051.03;;;0.93;81.75
41254;BME280;26987;59.928;30.306;2023-04-04T11:15:10;102066.16;;;1.16;80.88
41254;BME280;26987;59.928;30.306;2023-04-04T11:17:41;102072.56;;;1.00;81.45
41254;BME280;26987;59.928;30.306;2023-04-04T11:20:09;102064.16;;;0.82;81.86
41254;BME280;26987;59.928;30.306;2023-04-04T11:22:39;102072.28;;;0.92;83.06
41254;BME280;26987;59.928;30.306;2023-04-04T11:25:30;102076.84;;;1.14;82.38
41254;BME280;26987;59.928;30.306;2023-04-04T11:27:59;102077.72;;;1.02;83.26
41254;BME280;26987;59.928;30.306;2023-04-04T11:30:31;102081.88;;;0.93;82.62
41254;BME280;26987;59.928;30.306;2023-04-04T11:33:03;102083.06;;;0.88;83.15
41254;BME280;26987;59.928;30.306;2023-04-04T11:35:31;102026.94;;;0.47;84.52
41254;BME280;26987;59.928;30.306;2023-04-04T11:37:59;102082.88;;;0.66;84.03
41254;BME280;26987;59.928;30.306;2023-04-04T11:40:38;102085.22;;;0.70;84.93
41254;BME280;26987;59.928;30.306;2023-04-04T11:43:07;102075.09;;;0.51;84.19
41254;BME280;26987;59.928;30.306;2023-04-04T11:45:36;102036.25;;;0.40;84.37
41254;BME280;26987;59.928;30.306;2023-04-04T11:48:05;102058.41;;;0.50;84.51
41254;BME280;26987;59.928;30.306;2023-04-04T11:50:34;102086.28;;;0.42;83.76
41254;BME280;26987;59.928;30.306;2023-04-04T11:53:05;102077.13;;;0.34;83.96
41254;BME280;26987;59.928;30.306;2023-04-04T11:55:40;102065.06;;;0.30;84.42
41254;BME280;26987;59.928;30.306;2023-04-04T11:58:10;102072.66;;;0.35;84.66
41254;BME280;26987;59.928;30.306;2023-04-04T12:00:38;102087.25;;;0.41;84.89
41254;BME280;26987;59.928;30.306;2023-04-04T12:03:08;102069.91;;;0.36;86.15
41254;BME280;26987;59.928;30.306;2023-04-04T12:05:38;102045.44;;;0.34;87.03
41254;BME280;26987;59.928;30.306;2023-04-04T12:08:07;102046.78;;;0.53;85.97
41254;BME280;26987;59.928;30.306;2023-04-04T12:10:37;102069.75;;;0.77;83.46
41254;BME280;26987;59.928;30.306;2023-04-04T12:13:08;102047.44;;;0.57;82.70
41254;BME280;26987;59.928;30.306;2023-04-04T12:15:36;102079.81;;;0.72;83.91
41254;BME280;26987;59.928;30.306;2023-04-04T12:18:07;102075.38;;;0.72;84.09
41254;BME280;26987;59.928;30.306;2023-04-04T12:20:38;102074.81;;;0.80;84.46
41254;BME280;26987;59.928;30.306;2023-04-04T12:23:07;102079.78;;;0.85;84.00
41254;BME280;26987;59.928;30.306;2023-04-04T12:25:36;102085.72;;;0.75;82.75
41254;BME280;26987;59.928;30.306;2023-04-04T12:28:06;102082.97;;;0.77;83.36
41254;BME280;26987;59.928;30.306;2023-04-04T12:30:36;102075.78;;;0.79;83.36
41254;BME280;26987;59.928;30.306;2023-04-04T12:33:04;102067.91;;;0.66;83.42
41254;BME280;26987;59.928;30.306;2023-04-04T12:35:33;102078.75;;;0.74;83.31
41254;BME280;26987;59.928;30.306;2023-04-04T12:38:02;102070.09;;;0.72;83.26
41254;BME280;26987;59.928;30.306;2023-04-04T12:40:34;102084.75;;;0.90;84.20
41254;BME280;26987;59.928;30.306;2023-04-04T12:43:04;102083.88;;;1.02;85.19
41254;BME280;26987;59.928;30.306;2023-04-04T12:45:35;102053.00;;;1.03;84.57
41254;BME280;26987;59.928;30.306;2023-04-04T12:48:09;102079.22;;;1.30;82.66
41254;BME280;26987;59.928;30.306;2023-04-04T12:50:48;102082.16;;;1.38;82.96
41254;BME280;26987;59.928;30.306;2023-04-04T12:53:21;101956.06;;;0.67;83.02
41254;BME280;26987;59.928;30.306;2023-04-04T12:55:50;102081.22;;;1.51;81.79
41254;BME280;26987;59.928;30.306;2023-04-04T12:58:20;102085.50;;;1.41;81.75
41254;BME280;26987;59.928;30.306;2023-04-04T13:00:52;102087.66;;;1.35;81.90